createdAt,value
2019-03-23T00:01:50.667Z,102366.61
2019-03-23T00:04:20.415Z,102368.78
2019-03-23T00:06:50.127Z,102368.98
2019-03-23T00:09:19.887Z,102374.56
2019-03-23T00:11:49.607Z,102390.31
2019-03-23T00:14:19.329Z,102417.94
2019-03-23T00:16:49.121Z,102413.88
2019-03-23T00:19:18.872Z,102410.14
2019-03-23T00:21:48.599Z,102424.92
2019-03-23T00:24:18.361Z,102421.31
2019-03-23T00:26:48.081Z,102418.77
2019-03-23T00:29:17.862Z,102409.82
2019-03-23T00:31:47.613Z,102414.38
2019-03-23T00:34:17.390Z,102410.35
2019-03-23T00:36:47.108Z,102416.59
2019-03-23T00:39:16.875Z,102418.23
2019-03-23T00:41:46.614Z,102426.41
2019-03-23T00:44:16.368Z,102431.24
2019-03-23T00:46:46.103Z,102436.20
2019-03-23T00:49:15.827Z,102433.22
2019-03-23T00:55:13.807Z,102430.26
2019-03-23T00:57:43.606Z,102428.44
2019-03-23T01:00:14.307Z,102423.55
2019-03-23T01:02:44.546Z,102419.96
2019-03-23T01:05:14.360Z,102417.19
2019-03-23T01:07:44.023Z,102411.86
2019-03-23T01:10:13.902Z,102417.77
2019-03-23T01:12:43.604Z,102416.12
2019-03-23T01:15:14.026Z,102408.87
2019-03-23T01:17:43.746Z,102412.22
2019-03-23T01:20:14.128Z,102402.97
2019-03-23T01:22:43.904Z,102408.87
2019-03-23T01:25:13.800Z,102405.52
2019-03-23T01:27:43.514Z,102413.10
2019-03-23T01:30:14.686Z,102405.20
2019-03-23T01:32:44.474Z,102403.78
2019-03-23T01:35:14.399Z,102401.88
2019-03-23T01:37:44.130Z,102401.06
2019-03-23T01:40:14.022Z,102408.47
2019-03-23T01:42:43.885Z,102416.27
2019-03-23T01:45:14.938Z,102420.09
2019-03-23T01:47:44.832Z,102415.03
2019-03-23T01:50:15.422Z,102424.53
2019-03-23T01:52:45.292Z,102425.88
2019-03-23T01:55:15.154Z,102418.53
2019-03-23T01:57:44.877Z,102413.16
2019-03-23T02:00:15.236Z,102415.88
2019-03-23T02:02:44.998Z,102414.90
2019-03-23T02:05:15.078Z,102409.49
2019-03-23T02:07:44.849Z,102410.05
2019-03-23T02:10:14.739Z,102401.56
2019-03-23T02:12:44.481Z,102390.55
2019-03-23T02:15:14.755Z,102393.66
2019-03-23T02:17:44.515Z,102388.98
2019-03-23T02:20:14.898Z,102397.38
2019-03-23T02:22:44.704Z,102398.76
2019-03-23T02:25:14.512Z,102403.92
2019-03-23T02:27:44.256Z,102413.17
2019-03-23T02:30:14.472Z,102405.62
2019-03-23T02:32:44.189Z,102416.53
2019-03-23T02:35:14.074Z,102425.47
2019-03-23T02:37:43.883Z,102421.41
2019-03-23T02:40:13.695Z,102434.92
2019-03-23T02:42:43.448Z,102433.37
2019-03-23T02:45:13.900Z,102418.05
2019-03-23T02:47:46.632Z,102432.95
2019-03-23T02:50:16.399Z,102421.38
2019-03-23T02:52:46.164Z,102428.23
2019-03-23T02:55:15.908Z,102424.91
2019-03-23T02:57:45.639Z,102418.70
2019-03-23T03:00:17.553Z,102412.77
2019-03-23T03:02:47.310Z,102409.66
2019-03-23T03:05:17.115Z,102415.58
2019-03-23T03:07:46.859Z,102421.42
2019-03-23T03:10:37.876Z,102425.33
2019-03-23T03:13:07.713Z,102423.55
2019-03-23T03:15:37.531Z,102425.94
2019-03-23T03:18:08.142Z,102417.00
2019-03-23T03:20:37.885Z,102419.77
2019-03-23T03:23:07.683Z,102427.29
2019-03-23T03:25:37.430Z,102430.08
2019-03-23T03:28:07.251Z,102420.19
2019-03-23T03:30:37.001Z,102416.68
2019-03-23T03:33:06.809Z,102423.75
2019-03-23T03:35:36.537Z,102421.56
2019-03-23T03:38:06.322Z,102427.64
2019-03-23T03:40:36.253Z,102430.75
2019-03-23T03:43:05.969Z,102429.41
2019-03-23T03:45:35.821Z,102429.92
2019-03-23T03:48:05.581Z,102438.98
2019-03-23T03:50:35.291Z,102433.80
2019-03-23T03:53:05.051Z,102441.19
2019-03-23T03:55:34.778Z,102443.05
2019-03-23T03:58:04.593Z,102444.28
2019-03-23T04:00:34.312Z,102437.09
2019-03-23T04:03:04.155Z,102434.32
2019-03-23T04:05:33.935Z,102434.23
2019-03-23T04:08:10.878Z,102445.34
2019-03-23T04:10:35.155Z,102442.62
2019-03-23T04:13:04.987Z,102445.62
2019-03-23T04:15:34.907Z,102445.09
2019-03-23T04:18:04.666Z,102443.83
2019-03-23T04:20:34.406Z,102441.61
2019-03-23T04:23:04.216Z,102436.30
2019-03-23T04:25:34.029Z,102438.88
2019-03-23T04:28:03.764Z,102452.09
2019-03-23T04:30:33.491Z,102450.16
2019-03-23T04:33:03.235Z,102447.79
2019-03-23T04:35:32.985Z,102448.36
2019-03-23T04:38:02.725Z,102452.35
2019-03-23T04:40:32.503Z,102449.23
2019-03-23T04:43:02.264Z,102454.27
2019-03-23T04:45:32.007Z,102454.75
2019-03-23T04:48:01.763Z,102461.53
2019-03-23T04:50:31.479Z,102453.43
2019-03-23T04:53:01.247Z,102453.43
2019-03-23T04:55:31.036Z,102461.41
2019-03-23T04:58:00.786Z,102460.24
2019-03-23T05:00:30.533Z,102458.80
2019-03-23T05:03:00.288Z,102463.30
2019-03-23T05:05:30.035Z,102465.04
2019-03-23T05:07:59.789Z,102461.22
2019-03-23T05:10:29.507Z,102460.16
2019-03-23T05:12:59.264Z,102453.76
2019-03-23T05:15:28.993Z,102450.48
2019-03-23T05:17:58.722Z,102449.27
2019-03-23T05:20:30.743Z,102453.22
2019-03-23T05:23:00.594Z,102466.59
2019-03-23T05:25:30.898Z,102467.88
2019-03-23T05:28:00.639Z,102463.41
2019-03-23T05:30:30.546Z,102466.08
2019-03-23T05:33:00.271Z,102464.89
2019-03-23T05:35:30.006Z,102467.47
2019-03-23T05:37:59.821Z,102478.20
2019-03-23T05:40:29.591Z,102470.69
2019-03-23T05:42:59.307Z,102469.34
2019-03-23T05:45:29.074Z,102477.85
2019-03-23T05:47:58.790Z,102486.41
2019-03-23T05:50:28.562Z,102484.73
2019-03-23T05:52:58.269Z,102484.63
2019-03-23T05:55:28.111Z,102494.17
2019-03-23T05:57:57.827Z,102500.57
2019-03-23T06:00:27.605Z,102502.25
2019-03-23T06:02:57.348Z,102510.25
2019-03-23T06:05:27.098Z,102513.22
2019-03-23T06:07:56.839Z,102523.16
2019-03-23T06:10:26.639Z,102525.97
2019-03-23T06:12:56.386Z,102526.30
2019-03-23T06:15:26.147Z,102526.17
2019-03-23T06:17:55.882Z,102521.29
2019-03-23T06:20:25.621Z,102523.38
2019-03-23T06:22:55.355Z,102525.18
2019-03-23T06:25:25.163Z,102531.33
2019-03-23T06:27:56.245Z,102528.72
2019-03-23T06:30:26.159Z,102526.31
2019-03-23T06:32:55.864Z,102527.25
2019-03-23T06:35:25.615Z,102519.75
2019-03-23T06:37:55.332Z,102524.42
2019-03-23T06:40:25.129Z,102529.73
2019-03-23T06:42:59.772Z,102530.08
2019-03-23T06:45:26.360Z,102531.53
2019-03-23T06:47:56.099Z,102532.27
2019-03-23T06:50:25.943Z,102526.23
2019-03-23T06:52:55.715Z,102522.17
2019-03-23T06:55:27.116Z,102526.96
2019-03-23T06:58:01.510Z,102531.53
2019-03-23T07:00:36.180Z,102526.35
2019-03-23T07:03:05.990Z,102517.05
2019-03-23T07:05:37.403Z,102517.20
2019-03-23T07:08:07.126Z,102518.89
2019-03-23T07:10:36.865Z,102508.05
2019-03-23T07:13:06.708Z,102511.73
2019-03-23T07:15:36.440Z,102514.75
2019-03-23T07:18:10.475Z,102507.54
2019-03-23T07:20:40.256Z,102516.38
2019-03-23T07:23:10.067Z,102524.11
2019-03-23T07:25:39.809Z,102524.77
2019-03-23T07:28:09.512Z,102520.60
2019-03-23T07:30:39.570Z,102524.59
2019-03-23T07:33:09.364Z,102532.81
2019-03-23T07:35:39.105Z,102541.97
2019-03-23T07:38:08.822Z,102541.83
2019-03-23T07:40:38.632Z,102544.32
2019-03-23T07:43:08.314Z,102546.13
2019-03-23T07:45:38.075Z,102545.40
2019-03-23T07:48:07.791Z,102544.05
2019-03-23T07:50:37.579Z,102541.97
2019-03-23T07:53:07.373Z,102540.06
2019-03-23T07:55:37.140Z,102549.04
2019-03-23T07:58:06.880Z,102545.88
2019-03-23T08:00:36.662Z,102543.91
2019-03-23T08:03:06.405Z,102539.02
2019-03-23T08:05:36.154Z,102537.66
2019-03-23T08:08:05.874Z,102552.89
2019-03-23T08:10:35.639Z,102545.39
2019-03-23T08:13:05.448Z,102548.44
2019-03-23T08:15:35.212Z,102567.38
2019-03-23T08:18:05.005Z,102566.44
2019-03-23T08:20:34.762Z,102572.80
2019-03-23T08:23:04.627Z,102575.47
2019-03-23T08:25:34.919Z,102570.50
2019-03-23T08:28:04.748Z,102574.25
2019-03-23T08:30:34.481Z,102583.47
2019-03-23T08:33:04.336Z,102575.77
2019-03-23T08:35:34.126Z,102575.28
2019-03-23T08:38:03.895Z,102582.36
2019-03-23T08:40:35.691Z,102581.84
2019-03-23T08:43:05.038Z,102577.95
2019-03-23T08:45:34.795Z,102571.45
2019-03-23T08:48:04.596Z,102573.41
2019-03-23T08:50:34.422Z,102570.19
2019-03-23T08:53:04.265Z,102573.16
2019-03-23T08:55:34.095Z,102569.84
2019-03-23T08:58:05.357Z,102569.77
2019-03-23T09:00:35.163Z,102563.00
2019-03-23T09:03:05.007Z,102563.17
2019-03-23T09:05:38.222Z,102571.21
2019-03-23T09:08:08.004Z,102585.92
2019-03-23T09:10:39.460Z,102575.91
2019-03-23T09:13:09.264Z,102575.49
2019-03-23T09:15:39.105Z,102566.39
2019-03-23T09:18:08.841Z,102577.41
2019-03-23T09:20:38.814Z,102588.05
2019-03-23T09:23:08.571Z,102591.01
2019-03-23T09:25:38.360Z,102595.13
2019-03-23T09:28:08.108Z,102595.83
2019-03-23T09:30:37.872Z,102588.68
2019-03-23T09:33:07.672Z,102582.55
2019-03-23T09:35:40.019Z,102591.39
2019-03-23T09:38:08.930Z,102582.55
2019-03-23T09:40:38.922Z,102595.61
2019-03-23T09:43:08.654Z,102594.85
2019-03-23T09:45:38.540Z,102602.61
2019-03-23T09:48:08.305Z,102591.77
2019-03-23T09:50:38.155Z,102594.92
2019-03-23T09:53:07.872Z,102600.77
2019-03-23T09:55:37.629Z,102605.63
2019-03-23T09:58:07.380Z,102614.72
2019-03-23T10:00:37.130Z,102634.00
2019-03-23T10:03:06.984Z,102613.88
2019-03-23T10:05:36.795Z,102606.59
2019-03-23T10:08:06.507Z,102610.09
2019-03-23T10:10:36.325Z,102623.55
2019-03-23T10:13:06.055Z,102617.62
2019-03-23T10:15:35.805Z,102621.69
2019-03-23T10:18:05.575Z,102625.31
2019-03-23T10:20:35.347Z,102634.27
2019-03-23T10:23:05.142Z,102629.44
2019-03-23T10:25:34.931Z,102640.94
2019-03-23T10:28:04.817Z,102635.78
2019-03-23T10:30:34.704Z,102629.22
2019-03-23T10:33:04.546Z,102635.06
2019-03-23T10:35:34.423Z,102629.63
2019-03-23T10:38:04.245Z,102627.23
2019-03-23T10:40:33.991Z,102622.61
2019-03-23T10:43:03.740Z,102632.02
2019-03-23T10:45:40.067Z,102632.11
2019-03-23T10:48:14.805Z,102640.17
2019-03-23T10:50:44.646Z,102639.14
2019-03-23T10:53:22.805Z,102632.61
2019-03-23T10:55:45.896Z,102640.44
2019-03-23T10:58:15.666Z,102654.97
2019-03-23T11:00:45.519Z,102645.78
2019-03-23T11:03:15.287Z,102647.35
2019-03-23T11:05:45.016Z,102649.84
2019-03-23T11:08:14.724Z,102648.43
2019-03-23T11:10:44.515Z,102648.84
2019-03-23T11:13:14.287Z,102657.67
2019-03-23T11:15:44.032Z,102646.86
2019-03-23T11:18:13.781Z,102647.01
2019-03-23T11:20:43.530Z,102657.11
2019-03-23T11:23:13.287Z,102660.93
2019-03-23T11:25:43.048Z,102653.58
2019-03-23T11:28:12.754Z,102644.66
2019-03-23T11:30:42.492Z,102651.86
2019-03-23T11:33:20.324Z,102646.56
2019-03-23T11:35:57.457Z,102656.20
2019-03-23T11:38:21.574Z,102648.49
2019-03-23T11:40:54.055Z,102654.79
2019-03-23T11:43:23.007Z,102669.56
2019-03-23T11:45:52.823Z,102674.05
2019-03-23T11:48:22.553Z,102679.30
2019-03-23T11:50:52.514Z,102690.05
2019-03-23T11:53:22.253Z,102686.21
2019-03-23T11:55:57.980Z,102688.03
2019-03-23T11:58:29.374Z,102682.02
2019-03-23T12:01:09.756Z,102687.50
2019-03-23T12:03:43.005Z,102692.55
2019-03-23T12:06:12.738Z,102692.77
2019-03-23T12:08:45.731Z,102690.78
2019-03-23T12:11:15.557Z,102686.61
2019-03-23T12:13:45.343Z,102685.30
2019-03-23T12:16:15.095Z,102688.98
2019-03-23T12:18:44.811Z,102688.63
2019-03-23T12:21:25.245Z,102693.02
2019-03-23T12:23:54.992Z,102695.80
2019-03-23T12:26:24.850Z,102697.45
2019-03-23T12:28:54.611Z,102704.37
2019-03-23T12:31:24.533Z,102703.25
2019-03-23T12:33:56.997Z,102708.71
2019-03-23T12:36:26.862Z,102701.59
2019-03-23T12:38:56.552Z,102709.12
2019-03-23T12:41:26.316Z,102709.87
2019-03-23T12:43:56.136Z,102700.68
2019-03-23T12:46:25.920Z,102705.11
2019-03-23T12:48:55.758Z,102703.77
2019-03-23T12:51:26.495Z,102707.55
2019-03-23T12:54:10.319Z,102703.92
2019-03-23T12:56:40.043Z,102703.89
2019-03-23T12:59:09.823Z,102701.20
2019-03-23T13:01:39.564Z,102702.30
2019-03-23T13:04:09.374Z,102701.09
2019-03-23T13:06:39.138Z,102705.75
2019-03-23T13:09:08.967Z,102715.45
2019-03-23T13:11:38.780Z,102714.37
2019-03-23T13:14:12.154Z,102713.97
2019-03-23T13:16:43.765Z,102708.39
2019-03-23T13:19:13.571Z,102700.18
2019-03-23T13:21:43.467Z,102708.33
2019-03-23T13:24:13.231Z,102711.80
2019-03-23T13:26:42.988Z,102709.88
2019-03-23T13:29:12.722Z,102703.45
2019-03-23T13:31:42.543Z,102699.83
2019-03-23T13:34:12.286Z,102697.18
2019-03-23T13:36:42.029Z,102707.18
2019-03-23T13:39:11.759Z,102715.48
2019-03-23T13:41:51.981Z,102710.71
2019-03-23T13:44:21.724Z,102715.61
2019-03-23T13:46:51.473Z,102714.40
2019-03-23T13:49:21.247Z,102713.25
2019-03-23T13:51:51.076Z,102708.58
2019-03-23T13:54:20.807Z,102711.85
2019-03-23T13:56:50.577Z,102709.61
2019-03-23T13:59:20.318Z,102703.17
2019-03-23T14:01:50.099Z,102712.10
2019-03-23T14:04:19.825Z,102710.31
2019-03-23T14:06:49.641Z,102702.00
2019-03-23T14:09:19.323Z,102704.58
2019-03-23T14:11:54.927Z,102703.11
2019-03-23T14:14:20.563Z,102713.91
2019-03-23T14:16:50.331Z,102705.94
2019-03-23T14:19:20.093Z,102697.64
2019-03-23T14:21:49.873Z,102710.87
2019-03-23T14:24:19.550Z,102699.77
2019-03-23T14:26:49.311Z,102701.19
2019-03-23T14:29:19.035Z,102703.82
2019-03-23T14:31:48.789Z,102697.82
2019-03-23T14:34:18.523Z,102702.45
2019-03-23T14:36:48.269Z,102718.05
2019-03-23T14:39:18.041Z,102716.67
2019-03-23T14:41:47.749Z,102722.33
2019-03-23T14:44:17.495Z,102718.30
2019-03-23T14:46:47.240Z,102727.05
2019-03-23T14:49:16.990Z,102725.73
2019-03-23T14:51:46.780Z,102726.08
2019-03-23T14:54:16.505Z,102723.04
2019-03-23T14:56:46.256Z,102731.20
2019-03-23T14:59:15.967Z,102730.86
2019-03-23T15:01:45.747Z,102738.00
2019-03-23T15:04:15.473Z,102738.26
2019-03-23T15:06:45.200Z,102738.86
2019-03-23T15:09:14.911Z,102732.55
2019-03-23T15:11:44.648Z,102742.47
2019-03-23T15:14:14.380Z,102735.07
2019-03-23T15:16:44.137Z,102735.31
2019-03-23T15:19:15.563Z,102747.01
2019-03-23T15:21:45.506Z,102748.09
2019-03-23T15:24:15.304Z,102743.94
2019-03-23T15:26:45.053Z,102747.61
2019-03-23T15:29:14.759Z,102752.86
2019-03-23T15:31:44.502Z,102767.19
2019-03-23T15:34:14.255Z,102764.41
2019-03-23T15:36:44.013Z,102771.66
2019-03-23T15:39:13.742Z,102778.19
2019-03-23T15:41:43.550Z,102781.98
2019-03-23T15:44:13.258Z,102773.19
2019-03-23T15:46:43.010Z,102769.37
2019-03-23T15:49:12.726Z,102781.86
2019-03-23T15:51:42.528Z,102797.85
2019-03-23T15:54:12.229Z,102792.55
2019-03-23T15:56:41.980Z,102798.06
2019-03-23T15:59:11.732Z,102810.13
2019-03-23T16:01:41.499Z,102807.16
2019-03-23T16:04:11.222Z,102808.06
2019-03-23T16:06:40.989Z,102803.33
2019-03-23T16:09:10.725Z,102808.55
2019-03-23T16:11:40.557Z,102811.55
2019-03-23T16:14:10.307Z,102828.38
2019-03-23T16:16:40.087Z,102830.74
2019-03-23T16:19:09.835Z,102833.05
2019-03-23T16:21:39.577Z,102827.19
2019-03-23T16:24:09.337Z,102827.53
2019-03-23T16:26:39.058Z,102829.42
2019-03-23T16:29:09.746Z,102834.63
2019-03-23T16:31:39.568Z,102838.31
2019-03-23T16:34:09.309Z,102828.55
2019-03-23T16:36:39.047Z,102831.61
2019-03-23T16:39:08.816Z,102832.88
2019-03-23T16:41:38.509Z,102838.94
2019-03-23T16:44:08.240Z,102838.41
2019-03-23T16:46:37.958Z,102845.33
2019-03-23T16:49:07.673Z,102844.70
2019-03-23T16:51:37.410Z,102843.03
2019-03-23T16:54:07.191Z,102850.06
2019-03-23T16:56:36.970Z,102846.83
2019-03-23T16:59:06.711Z,102847.73
2019-03-23T17:01:36.438Z,102849.50
2019-03-23T17:04:06.198Z,102852.11
2019-03-23T17:06:45.831Z,102861.28
2019-03-23T17:09:07.454Z,102853.50
2019-03-23T17:11:37.178Z,102858.28
2019-03-23T17:14:06.987Z,102861.93
2019-03-23T17:16:36.700Z,102858.06
2019-03-23T17:19:06.460Z,102856.84
2019-03-23T17:21:36.166Z,102866.62
2019-03-23T17:24:05.876Z,102862.33
2019-03-23T17:26:38.602Z,102863.30
2019-03-23T17:29:08.367Z,102869.03
2019-03-23T17:31:38.091Z,102868.41
2019-03-23T17:34:07.821Z,102875.40
2019-03-23T17:36:37.530Z,102885.17
2019-03-23T17:39:07.502Z,102884.28
2019-03-23T17:41:37.206Z,102881.27
2019-03-23T17:44:11.897Z,102885.39
2019-03-23T17:46:44.379Z,102880.19
2019-03-23T17:49:22.479Z,102879.73
2019-03-23T17:51:52.198Z,102895.07
2019-03-23T17:54:23.597Z,102899.36
2019-03-23T17:56:54.115Z,102894.43
2019-03-23T17:59:25.748Z,102902.35
2019-03-23T18:01:57.173Z,102899.45
2019-03-23T18:04:31.490Z,102902.61
2019-03-23T18:07:04.277Z,102907.77
2019-03-23T18:09:34.017Z,102919.05
2019-03-23T18:12:10.326Z,102916.34
2019-03-23T18:14:40.064Z,102918.75
2019-03-23T18:17:11.386Z,102912.08
2019-03-23T18:19:41.117Z,102902.77
2019-03-23T18:22:10.843Z,102910.67
2019-03-23T18:24:40.582Z,102908.55
2019-03-23T18:27:10.279Z,102909.20
2019-03-23T18:29:40.125Z,102902.65
2019-03-23T18:32:09.947Z,102902.66
2019-03-23T18:34:42.053Z,102911.28
2019-03-23T18:37:13.498Z,102914.73
2019-03-23T18:39:43.228Z,102917.38
2019-03-23T18:42:15.694Z,102921.63
2019-03-23T18:44:45.504Z,102926.19
2019-03-23T18:47:17.898Z,102932.08
2019-03-23T18:49:47.650Z,102937.00
2019-03-23T18:52:17.432Z,102943.33
2019-03-23T18:54:47.175Z,102946.95
2019-03-23T18:57:16.922Z,102949.16
2019-03-23T18:59:46.685Z,102954.91
2019-03-23T19:02:19.597Z,102956.41
2019-03-23T19:04:49.795Z,102960.70
2019-03-23T19:07:19.502Z,102953.11
2019-03-23T19:09:49.289Z,102960.06
2019-03-23T19:12:19.073Z,102961.59
2019-03-23T19:14:49.047Z,102962.60
2019-03-23T19:17:18.996Z,102964.14
2019-03-23T19:19:48.845Z,102961.19
2019-03-23T19:22:18.608Z,102960.39
2019-03-23T19:24:48.579Z,102963.88
2019-03-23T19:27:18.410Z,102964.63
2019-03-23T19:29:48.866Z,102967.33
2019-03-23T19:32:18.740Z,102968.30
2019-03-23T19:34:48.528Z,102959.59
2019-03-23T19:37:18.521Z,102966.45
2019-03-23T19:39:48.569Z,102968.39
2019-03-23T19:42:18.419Z,102977.00
2019-03-23T19:44:50.439Z,102977.05
2019-03-23T19:47:21.467Z,102982.11
2019-03-23T19:49:51.260Z,102983.52
2019-03-23T19:52:22.529Z,102991.19
2019-03-23T19:54:57.406Z,102986.34
2019-03-23T19:57:28.142Z,102988.66
2019-03-23T19:59:58.054Z,102997.49
2019-03-23T20:02:27.999Z,102989.41
2019-03-23T20:05:01.215Z,102993.89
2019-03-23T20:07:33.244Z,102997.07
2019-03-23T20:10:06.726Z,103003.37
2019-03-23T20:12:36.532Z,103000.56
2019-03-23T20:15:09.972Z,102999.96
2019-03-23T20:17:39.738Z,102994.31
2019-03-23T20:20:10.638Z,102992.20
2019-03-23T20:22:40.411Z,102997.17
2019-03-23T20:25:10.680Z,103000.02
2019-03-23T20:27:40.525Z,103000.36
2019-03-23T20:30:12.506Z,103002.72
2019-03-23T20:32:42.781Z,102996.95
2019-03-23T20:35:12.653Z,103006.39
2019-03-23T20:37:42.477Z,103005.23
2019-03-23T20:40:13.464Z,103003.51
2019-03-23T20:42:43.939Z,103005.86
2019-03-23T20:45:16.848Z,102997.44
2019-03-23T20:47:47.049Z,102997.97
2019-03-23T20:50:16.936Z,102990.32
2019-03-23T20:52:47.518Z,102998.89
2019-03-23T20:55:31.564Z,102997.62
2019-03-23T20:58:03.870Z,102996.33
2019-03-23T21:00:33.694Z,102997.77
2019-03-23T21:03:03.836Z,103006.02
2019-03-23T21:05:35.180Z,103014.17
2019-03-23T21:08:05.093Z,103012.87
2019-03-23T21:10:36.128Z,103007.96
2019-03-23T21:13:07.039Z,103014.38
2019-03-23T21:15:36.990Z,103010.77
2019-03-23T21:18:08.186Z,103014.84
2019-03-23T21:20:38.017Z,103013.97
2019-03-23T21:23:07.765Z,103019.32
2019-03-23T21:25:38.301Z,103015.36
2019-03-23T21:28:08.112Z,103019.80
2019-03-23T21:30:37.982Z,103015.36
2019-03-23T21:33:07.923Z,103014.80
2019-03-23T21:35:37.774Z,103007.22
2019-03-23T21:38:07.520Z,103005.98
2019-03-23T21:40:37.251Z,103015.40
2019-03-23T21:43:07.153Z,103007.64
2019-03-23T21:45:36.863Z,103013.14
2019-03-23T21:48:06.653Z,103011.28
2019-03-23T21:50:46.780Z,103008.95
2019-03-23T21:53:07.843Z,103008.55
2019-03-23T21:55:37.566Z,103000.96
2019-03-23T21:58:07.329Z,103007.65
2019-03-23T22:00:37.186Z,103015.28
2019-03-23T22:03:06.937Z,103008.52
2019-03-23T22:05:36.659Z,103003.22
2019-03-23T22:08:06.440Z,102999.18
2019-03-23T22:10:36.242Z,103002.19
2019-03-23T22:13:06.079Z,103000.36
2019-03-23T22:15:35.806Z,103005.35
2019-03-23T22:18:05.599Z,103000.96
2019-03-23T22:20:35.349Z,103009.98
2019-03-23T22:23:05.185Z,103005.11
2019-03-23T22:25:34.897Z,103004.28
2019-03-23T22:28:04.798Z,103017.33
2019-03-23T22:30:34.614Z,102999.81
2019-03-23T22:33:04.391Z,102998.42
2019-03-23T22:35:34.207Z,102996.25
2019-03-23T22:38:03.994Z,103001.16
2019-03-23T22:40:33.754Z,103005.23
2019-03-23T22:43:03.466Z,103003.05
2019-03-23T22:45:33.199Z,102996.80
2019-03-23T22:48:03.083Z,102994.69
2019-03-23T22:50:33.001Z,102988.87
2019-03-23T22:53:02.698Z,102987.56
2019-03-23T22:55:32.529Z,102994.72
2019-03-23T22:58:02.287Z,102988.47
2019-03-23T23:00:33.828Z,102985.85
2019-03-23T23:03:03.740Z,102991.66
2019-03-23T23:05:33.537Z,102981.78
2019-03-23T23:08:03.301Z,102984.95
2019-03-23T23:10:33.021Z,102991.19
2019-03-23T23:13:02.752Z,102981.31
2019-03-23T23:15:32.552Z,102976.41
2019-03-23T23:18:02.288Z,102979.53
2019-03-23T23:20:32.144Z,102962.49
2019-03-23T23:23:01.916Z,102967.47
2019-03-23T23:25:31.652Z,102974.30
2019-03-23T23:28:01.383Z,102972.91
2019-03-23T23:30:31.120Z,102971.10
2019-03-23T23:33:00.853Z,102973.79
2019-03-23T23:35:30.678Z,102972.48
2019-03-23T23:38:00.508Z,102973.36
2019-03-23T23:40:30.266Z,102966.70
2019-03-23T23:43:00.002Z,102967.11
2019-03-23T23:45:29.825Z,102964.45
2019-03-23T23:47:59.615Z,102964.34
2019-03-23T23:50:29.341Z,102958.06
2019-03-23T23:52:59.386Z,102964.31
2019-03-23T23:55:31.829Z,102964.28
2019-03-23T23:58:01.555Z,102964.31
